首页
METAR-TAF:

METAR-TAF

机场 :

腓特烈港机场

腓特烈港, 德国

纬度: 47-40N, 经度: 009-31E, 海拔: 416米

当前天气观测

该预报发布于44分钟前的05:20 UTC
风速8节,风向南转西南,在南转南东西南之间变化
温度 8°C
湿度 66%
气压 1028 hPa
能见度10公里或以上
多云层高于6200英尺
阴天层高于7100英尺
小雨

METAR: EDNY 230520Z 20008KT 160V230 9999 -RA BKN062 OVC071 08/02 Q1028

时间: 07:04 (06:04 UTC)

预报

该预报发布于1小时和4分钟前的05:00 UTC
预报有效从23日的 06点(UTC)到 24日的 06点(UTC)
风速5节,风向西南
能见度10公里或以上
多云层高于5000英尺
成为
从 23日的 08点(UTC)到 23日的 10点(UTC)
风速10节,风向西转西南
成为
从 23日的 11点(UTC)到 23日的 13点(UTC)
风速15节,风向西转西南,有时为30节阵风
几率 30% :
短暂存在
从 23日的 23点(UTC)到 24日的 04点(UTC)
成为
从 24日的 02点(UTC)到 24日的 04点(UTC)
风速10节,风向西转西南

TAF: EDNY 230500Z 2306/2406 23005KT 9999 BKN050 BECMG 2308/2310 24010KT BECMG 2311/2313 25015G30KT PROB30 TEMPO 2323/2404 RA BECMG 2402/2404 24010KT

超过4000个机场的气象观测和天气预报(METAR&TAF报告)。

可查询的气象台以黄色和红色小点在地图上表示。

将鼠标移到小点上方,可查看气象台名称。

然后点击查看天气观测和预报。

如需切换地图:点击带黑十字的绿色按钮放大地图;点击带横线的绿色按钮缩小地图;或者点击绿色箭头查看邻近地区的地图。


METAR-TAF: